Urb Garcia Ponce, Puerto Rico
Current Conditions -  °F | °C
As of 4:53 AM on Monday 22 Dec 2014 (Local Time) from TJNR Reporting Station
Broken Clouds Broken Clouds  
Wind Chill: 78°   Ceiling: 4100
Heat Index: 80°   Visibility: 10mi
Dew Point: 71°   Wind: 8mph
Humidity: 79%   Direction: 70°ENE
Pressure: 30.03"   Gusts: NA
Location:  18.3304°N, 65.6573°W
Report Text: TJNR 220853Z AUTO 07007KT 10SM SCT023 SCT031 BKN041 26/22 A3003 RMK AO2 RAE0756 SLP170 P0000 60000 T02560217 55011 $
Loading
Personal Weather Stations






























Interactive Weather Map New forecast layout! Learn more

10-Day Weather Forecast

Advertisements
Track Severe Weather on mobile